Time;durP1;ratioP1;P1;durP2;ratioP2;P2;SDS_P1;SDS_P2;PMS_P1;PMS_P2;Temp;Humidity;BMP_temperature;BMP_pressure;BME280_temperature;BME280_humidity;BME280_pressure;Samples;Min_cycle;Max_cycle;Signal;HPM_P1;HPM_P2
2020/12/15 00:02:09;;;;;;;5.67;4.43;;;;;;;8.93;55.04;96201.88;5065495;28;20186;-71
2020/12/15 00:04:35;;;;;;;6.23;4.77;;;;;;;8.93;55.59;96195.81;5068319;28;20206;-70
2020/12/15 00:07:02;;;;;;;5.00;3.80;;;;;;;8.95;55.42;96194.66;5067392;28;20187;-69
2020/12/15 00:09:37;;;;;;;5.83;4.10;;;;;;;8.94;54.99;96203.50;5070471;28;20189;-70
2020/12/15 00:12:03;;;;;;;5.70;4.00;;;;;;;8.95;54.46;96202.50;5049723;28;20464;-70
2020/12/15 00:14:29;;;;;;;4.67;3.93;;;;;;;8.93;54.85;96207.09;5070659;28;20472;-69
2020/12/15 00:16:58;;;;;;;5.60;4.77;;;;;;;8.93;55.08;96201.03;5072725;28;20190;-70
2020/12/15 00:19:24;;;;;;;5.23;4.20;;;;;;;8.94;55.03;96202.66;5073145;28;20704;-70
2020/12/15 00:21:51;;;;;;;5.47;4.37;;;;;;;8.90;54.54;96202.19;5074489;28;20502;-71
2020/12/15 00:24:32;;;;;;;5.60;4.60;;;;;;;8.92;55.30;96200.22;5065943;28;20547;-70
2020/12/15 00:27:00;;;;;;;5.40;4.60;;;;;;;8.91;54.68;96198.59;5058221;28;20425;-70
2020/12/15 00:29:26;;;;;;;4.40;3.77;;;;;;;8.89;54.30;96188.28;5073126;28;20424;-70
2020/12/15 00:31:52;;;;;;;6.63;4.50;;;;;;;8.97;53.91;96191.88;5073126;28;20232;-70
2020/12/15 00:34:18;;;;;;;4.87;3.87;;;;;;;8.99;53.54;96195.97;5073997;28;20198;-70
2020/12/15 00:36:43;;;;;;;4.50;3.87;;;;;;;9.00;53.46;96194.97;5068196;28;20201;-70
2020/12/15 00:39:09;;;;;;;4.53;3.80;;;;;;;8.99;52.47;96185.50;5057394;28;20301;-70
2020/12/15 00:41:35;;;;;;;4.50;3.50;;;;;;;9.01;52.46;96174.91;5056277;28;20691;-70
2020/12/15 00:44:00;;;;;;;4.57;3.63;;;;;;;9.06;53.08;96175.19;5065528;28;20214;-70
2020/12/15 00:46:26;;;;;;;4.10;3.50;;;;;;;9.11;51.85;96167.69;5073877;28;20526;-70
2020/12/15 00:48:52;;;;;;;4.63;3.80;;;;;;;9.19;51.53;96169.44;5055954;28;20183;-70
2020/12/15 00:51:18;;;;;;;4.00;3.60;;;;;;;9.22;51.47;96166.47;5073955;28;20198;-69
2020/12/15 00:53:45;;;;;;;5.17;3.80;;;;;;;9.24;51.23;96167.13;5069915;28;20221;-70
2020/12/15 00:56:11;;;;;;;6.33;3.90;;;;;;;9.19;51.92;96164.22;5073673;28;20452;-70
2020/12/15 00:58:37;;;;;;;6.00;4.10;;;;;;;9.17;52.30;96164.38;5072619;28;20589;-71
2020/12/15 01:01:04;;;;;;;5.77;4.20;;;;;;;9.13;52.89;96173.56;5073769;28;20515;-70
2020/12/15 01:03:30;;;;;;;5.17;4.00;;;;;;;9.15;53.19;96178.59;5068419;28;20732;-70
2020/12/15 01:05:56;;;;;;;5.07;4.10;;;;;;;9.17;52.84;96174.84;5068629;28;20508;-70
2020/12/15 01:08:22;;;;;;;6.30;3.90;;;;;;;9.16;53.42;96169.78;5072335;28;20303;-70
2020/12/15 01:10:47;;;;;;;4.67;4.10;;;;;;;9.17;53.58;96172.22;5072121;28;20496;-70
2020/12/15 01:13:13;;;;;;;5.30;4.00;;;;;;;9.18;53.72;96175.66;5074183;28;20198;-70
2020/12/15 01:15:38;;;;;;;6.33;4.40;;;;;;;9.13;53.41;96170.13;5074240;28;20189;-71
2020/12/15 01:18:04;;;;;;;5.80;4.33;;;;;;;9.05;54.36;96187.47;5074284;28;20258;-70
2020/12/15 01:20:30;;;;;;;6.83;4.93;;;;;;;9.04;54.48;96182.38;5073584;28;20182;-70
2020/12/15 01:22:55;;;;;;;5.83;4.40;;;;;;;8.93;54.34;96177.50;5071593;28;20194;-70
2020/12/15 01:25:21;;;;;;;7.00;5.07;;;;;;;8.62;55.37;96186.88;5073347;28;20637;-70
2020/12/15 01:27:47;;;;;;;10.40;5.10;;;;;;;8.46;55.22;96185.88;5071946;28;20598;-70
2020/12/15 01:30:12;;;;;;;5.87;4.80;;;;;;;8.65;55.64;96190.94;5072861;28;20182;-71
2020/12/15 01:32:38;;;;;;;4.57;4.10;;;;;;;8.71;55.11;96188.50;5065016;28;20182;-70
2020/12/15 01:35:04;;;;;;;5.70;4.53;;;;;;;8.79;54.04;96189.47;5068259;28;20186;-71
2020/12/15 01:37:30;;;;;;;5.60;4.87;;;;;;;8.72;54.27;96192.72;5072777;28;20179;-71
2020/12/15 01:39:55;;;;;;;5.80;4.60;;;;;;;8.72;54.28;96195.34;5072540;28;20524;-71
2020/12/15 01:42:21;;;;;;;6.60;4.97;;;;;;;8.75;54.05;96191.59;5071585;28;20182;-71
2020/12/15 01:44:47;;;;;;;5.87;4.47;;;;;;;8.86;54.34;96199.09;5072346;28;20206;-70
2020/12/15 01:47:14;;;;;;;7.90;4.30;;;;;;;8.83;53.93;96190.75;5072761;28;20231;-70
2020/12/15 01:49:41;;;;;;;5.73;4.60;;;;;;;8.75;54.87;96196.84;5065297;28;20287;-70
2020/12/15 01:52:07;;;;;;;6.60;4.63;;;;;;;8.71;54.29;96183.25;5072300;28;20582;-71
2020/12/15 01:54:32;;;;;;;5.73;4.60;;;;;;;8.69;54.99;96181.81;5071026;28;20970;-71
2020/12/15 01:56:58;;;;;;;6.30;4.63;;;;;;;8.84;54.20;96181.94;5054478;28;20638;-70
2020/12/15 01:59:24;;;;;;;5.37;4.33;;;;;;;8.85;54.11;96179.19;5052367;28;20211;-71
2020/12/15 02:01:50;;;;;;;6.03;4.13;;;;;;;8.96;54.04;96191.06;5063940;28;20270;-71
2020/12/15 02:04:15;;;;;;;6.60;5.03;;;;;;;8.99;53.38;96185.50;5071193;28;20194;-70
2020/12/15 02:06:45;;;;;;;6.00;4.70;;;;;;;9.10;52.40;96191.34;5067081;28;20190;-71
2020/12/15 02:09:11;;;;;;;5.87;4.40;;;;;;;9.17;52.61;96197.56;5065775;28;20189;-70
2020/12/15 02:11:37;;;;;;;7.30;4.60;;;;;;;9.21;52.41;96194.44;5072241;28;20523;-71
2020/12/15 02:14:03;;;;;;;8.03;4.70;;;;;;;9.23;52.73;96183.78;5071863;28;20432;-71
2020/12/15 02:16:29;;;;;;;6.03;4.70;;;;;;;9.26;52.20;96190.50;5071101;28;20460;-70
2020/12/15 02:18:55;;;;;;;5.70;4.47;;;;;;;9.29;52.37;96185.75;5070411;28;20216;-70
2020/12/15 02:21:21;;;;;;;7.10;4.77;;;;;;;9.22;52.47;96174.31;5072105;28;20508;-70
2020/12/15 02:23:47;;;;;;;4.73;4.23;;;;;;;9.27;52.56;96181.66;5070298;28;20201;-69
2020/12/15 02:26:22;;;;;;;5.63;4.57;;;;;;;9.27;52.46;96172.03;5074232;28;20199;-70
2020/12/15 02:29:05;;;;;;;5.87;4.33;;;;;;;9.11;53.43;96172.06;5076349;28;20179;-69
2020/12/15 02:31:31;;;;;;;7.70;4.77;;;;;;;9.20;52.72;96160.59;5070568;28;20413;-70
2020/12/15 02:33:56;;;;;;;6.87;4.17;;;;;;;9.24;52.62;96156.66;5071461;28;20589;-71
2020/12/15 02:36:22;;;;;;;5.37;4.20;;;;;;;9.26;52.52;96159.94;5067202;28;20266;-69
2020/12/15 02:39:17;;;;;;;4.63;3.93;;;;;;;9.30;52.89;96153.41;5070619;28;20214;-68
2020/12/15 02:41:42;;;;;;;6.00;3.87;;;;;;;9.33;52.79;96147.81;5072121;28;20417;-70
2020/12/15 02:44:09;;;;;;;7.57;4.40;;;;;;;9.37;52.22;96151.72;5071394;28;20452;-69
2020/12/15 02:46:35;;;;;;;4.87;3.33;;;;;;;9.33;52.26;96145.19;5066201;28;20185;-70
2020/12/15 02:49:01;;;;;;;4.80;3.47;;;;;;;9.27;52.80;96138.03;5053766;28;20423;-69
2020/12/15 02:51:28;;;;;;;3.87;3.43;;;;;;;9.43;52.19;96133.72;5070474;28;20900;-69
2020/12/15 02:53:54;;;;;;;4.13;3.30;;;;;;;9.10;52.59;96128.63;5036982;28;20432;-69
2020/12/15 02:56:23;;;;;;;3.93;2.93;;;;;;;8.99;52.62;96122.78;5071560;28;20539;-69
2020/12/15 02:58:50;;;;;;;4.13;3.67;;;;;;;9.23;53.41;96144.59;5071456;28;20453;-69
2020/12/15 03:01:16;;;;;;;4.90;3.50;;;;;;;9.33;52.88;96129.50;5052370;28;20417;-69
2020/12/15 03:03:42;;;;;;;4.70;3.70;;;;;;;8.75;54.19;96093.16;5068039;28;20934;-70
2020/12/15 03:06:08;;;;;;;13.60;4.00;;;;;;;8.46;55.17;96086.66;5066318;28;20435;-69
2020/12/15 03:08:34;;;;;;;22.37;7.17;;;;;;;8.78;54.59;96104.25;5070216;28;20417;-69
2020/12/15 03:11:01;;;;;;;5.37;4.37;;;;;;;8.98;54.00;96142.06;5071236;28;20220;-69
2020/12/15 03:13:27;;;;;;;7.73;4.50;;;;;;;8.76;54.62;96180.97;5071516;28;20436;-71
2020/12/15 03:15:53;;;;;;;5.73;4.53;;;;;;;8.68;54.88;96167.94;5070719;28;20482;-70
2020/12/15 03:18:18;;;;;;;5.30;4.10;;;;;;;8.83;54.07;96146.34;5071493;28;20765;-69
2020/12/15 03:20:48;;;;;;;6.33;4.40;;;;;;;9.00;53.79;96158.38;5071689;28;20193;-69
2020/12/15 03:23:18;;;;;;;10.93;5.03;;;;;;;8.98;53.48;96162.97;5071848;28;20206;-70
2020/12/15 03:25:43;;;;;;;7.20;5.00;;;;;;;8.98;53.27;96151.72;5071369;28;20515;-69
2020/12/15 03:28:09;;;;;;;9.80;4.63;;;;;;;9.02;53.61;96142.53;5071876;28;20499;-70
2020/12/15 03:30:36;;;;;;;9.47;4.80;;;;;;;9.02;53.44;96127.69;5071130;28;20949;-69
2020/12/15 03:33:02;;;;;;;10.33;4.77;;;;;;;9.10;53.10;96113.78;5071546;28;20209;-70
2020/12/15 03:35:28;;;;;;;7.37;4.77;;;;;;;9.13;53.04;96104.75;5066674;28;20421;-69
2020/12/15 03:37:55;;;;;;;10.57;4.87;;;;;;;9.18;53.71;96099.84;5071093;28;20837;-69
2020/12/15 03:40:22;;;;;;;10.93;5.00;;;;;;;9.28;52.75;96108.28;5071433;28;20930;-70
2020/12/15 03:42:48;;;;;;;7.53;5.00;;;;;;;9.33;52.79;96108.59;5070589;28;20444;-69
2020/12/15 03:45:13;;;;;;;11.93;5.53;;;;;;;9.40;52.80;96123.59;5071028;28;20464;-70
2020/12/15 03:47:40;;;;;;;7.73;4.70;;;;;;;9.42;52.46;96132.09;5071237;28;20450;-69
2020/12/15 03:50:09;;;;;;;10.23;5.00;;;;;;;9.26;53.29;96133.78;5068321;28;20175;-70
2020/12/15 03:52:37;;;;;;;7.80;4.97;;;;;;;9.31;53.19;96141.13;5060556;28;20422;-69
2020/12/15 03:55:05;;;;;;;6.03;4.70;;;;;;;9.40;53.63;96152.38;5074420;28;20439;-69
2020/12/15 03:57:31;;;;;;;6.13;4.50;;;;;;;9.40;52.78;96162.81;5069250;28;20447;-70
2020/12/15 03:59:57;;;;;;;8.17;5.00;;;;;;;9.24;53.18;96161.91;5074769;28;20831;-69
2020/12/15 04:02:23;;;;;;;8.50;4.43;;;;;;;9.16;53.75;96175.00;5069856;28;20428;-68
2020/12/15 04:04:49;;;;;;;4.80;3.83;;;;;;;9.26;52.90;96180.84;5070422;28;20696;-69
2020/12/15 04:07:15;;;;;;;6.50;4.47;;;;;;;9.34;53.54;96172.97;5070903;28;20638;-69
2020/12/15 04:09:41;;;;;;;6.10;4.50;;;;;;;8.98;53.69;96168.19;5071693;28;20420;-71
2020/12/15 04:12:07;;;;;;;6.63;4.13;;;;;;;8.97;54.14;96166.56;5072026;28;20425;-69
2020/12/15 04:14:33;;;;;;;5.60;3.83;;;;;;;8.92;52.51;96168.88;5074772;28;20209;-70
2020/12/15 04:16:59;;;;;;;4.33;3.40;;;;;;;9.17;53.18;96168.81;5066228;28;20907;-70
2020/12/15 04:19:24;;;;;;;4.50;3.17;;;;;;;9.33;52.89;96160.88;5074514;28;20453;-70
2020/12/15 04:21:50;;;;;;;3.70;2.87;;;;;;;9.36;52.38;96149.28;5074175;28;20208;-70
2020/12/15 04:24:16;;;;;;;3.90;3.00;;;;;;;9.43;51.89;96144.19;5074501;28;20282;-71
2020/12/15 04:26:41;;;;;;;2.80;2.60;;;;;;;9.51;51.28;96149.38;5073998;28;20246;-70
2020/12/15 04:29:07;;;;;;;4.40;3.07;;;;;;;9.47;51.38;96155.91;5074340;28;20228;-71
2020/12/15 04:31:33;;;;;;;3.60;3.30;;;;;;;9.62;50.77;96150.78;5072813;28;20186;-71
2020/12/15 04:33:58;;;;;;;4.60;3.60;;;;;;;9.63;50.99;96149.81;5072616;28;20229;-70
2020/12/15 04:36:24;;;;;;;3.90;3.27;;;;;;;9.55;50.50;96168.16;5069318;28;20174;-70
2020/12/15 04:38:50;;;;;;;3.60;3.30;;;;;;;9.60;50.35;96169.25;5074221;28;20200;-70
2020/12/15 04:41:16;;;;;;;4.23;3.20;;;;;;;9.70;50.33;96173.47;5074019;28;20695;-70
2020/12/15 04:43:42;;;;;;;7.80;5.13;;;;;;;9.57;50.47;96193.16;5074324;28;20344;-70
2020/12/15 04:46:11;;;;;;;4.00;3.20;;;;;;;9.61;50.71;96186.59;5058669;28;20448;-70
2020/12/15 04:48:43;;;;;;;4.87;3.23;;;;;;;9.73;50.20;96180.97;5072779;28;20441;-70
2020/12/15 04:51:11;;;;;;;4.17;2.97;;;;;;;9.77;50.03;96177.84;5056386;28;20428;-70
2020/12/15 04:53:36;;;;;;;6.03;3.00;;;;;;;9.78;50.43;96178.66;5060854;28;20448;-69
2020/12/15 04:56:18;;;;;;;7.03;3.83;;;;;;;9.75;50.35;96179.00;5060242;28;20429;-70
2020/12/15 04:58:48;;;;;;;3.00;2.70;;;;;;;9.86;50.06;96175.97;5072131;28;20201;-69
2020/12/15 05:01:13;;;;;;;4.03;2.80;;;;;;;9.87;50.05;96182.06;5072602;28;20521;-70
2020/12/15 05:03:39;;;;;;;4.27;2.80;;;;;;;9.91;50.28;96183.31;5068270;28;20472;-71
2020/12/15 05:06:05;;;;;;;3.13;2.83;;;;;;;9.87;50.02;96175.00;5072334;28;20179;-71
2020/12/15 05:08:37;;;;;;;4.23;2.93;;;;;;;9.91;50.08;96160.59;5072530;28;21098;-70
2020/12/15 05:11:02;;;;;;;3.13;2.60;;;;;;;9.96;49.90;96155.63;5073464;28;20424;-70
2020/12/15 05:13:29;;;;;;;3.00;2.73;;;;;;;9.97;49.48;96146.78;5071818;28;21021;-70
2020/12/15 05:15:57;;;;;;;2.70;2.47;;;;;;;9.96;49.61;96146.97;5071613;28;20166;-70
2020/12/15 05:18:23;;;;;;;3.60;2.60;;;;;;;9.99;49.73;96144.81;5073226;28;20452;-70
2020/12/15 05:20:49;;;;;;;2.23;2.03;;;;;;;10.10;49.45;96151.47;5073333;28;20431;-69
2020/12/15 05:23:21;;;;;;;4.20;2.90;;;;;;;10.13;49.63;96143.28;5073262;28;20275;-69
2020/12/15 05:25:47;;;;;;;3.77;3.33;;;;;;;9.98;50.86;96152.84;5057126;28;20269;-69
2020/12/15 05:28:14;;;;;;;5.43;3.07;;;;;;;9.88;51.77;96158.31;5072660;28;20444;-69
2020/12/15 05:30:43;;;;;;;4.37;3.00;;;;;;;9.75;52.05;96156.28;5073238;28;20175;-70
2020/12/15 05:33:18;;;;;;;3.40;2.93;;;;;;;9.84;51.35;96151.78;5056590;28;20445;-70
2020/12/15 05:35:43;;;;;;;13.80;3.27;;;;;;;9.88;50.96;96145.22;5071701;28;20423;-69
2020/12/15 05:38:09;;;;;;;4.90;3.10;;;;;;;9.83;51.07;96150.16;5054776;28;20457;-69
2020/12/15 05:40:38;;;;;;;4.17;3.37;;;;;;;9.92;51.00;96145.69;5071958;28;20232;-72
2020/12/15 05:43:05;;;;;;;4.83;3.33;;;;;;;9.96;50.89;96152.22;5072780;28;20216;-70
2020/12/15 05:45:32;;;;;;;4.43;3.10;;;;;;;9.97;51.39;96157.25;5073129;28;20425;-69
2020/12/15 05:48:05;;;;;;;5.37;3.30;;;;;;;9.99;51.39;96150.06;5072789;28;20432;-69
2020/12/15 05:50:31;;;;;;;4.90;3.23;;;;;;;10.03;51.32;96153.13;5072930;28;20413;-70
2020/12/15 05:53:07;;;;;;;4.30;3.60;;;;;;;10.04;51.22;96146.91;5071474;28;20498;-69
2020/12/15 05:55:33;;;;;;;3.90;3.30;;;;;;;10.02;51.27;96145.47;5050897;28;20174;-70
2020/12/15 05:57:59;;;;;;;4.43;3.20;;;;;;;10.07;51.11;96148.38;5067836;28;20954;-70
2020/12/15 06:00:28;;;;;;;8.60;4.70;;;;;;;10.07;51.84;96151.00;5073083;28;20177;-70
2020/12/15 06:03:04;;;;;;;6.70;4.10;;;;;;;10.15;51.53;96156.16;5067324;28;20444;-70
2020/12/15 06:05:32;;;;;;;9.10;3.70;;;;;;;10.19;51.80;96170.56;5071353;28;20427;-70
2020/12/15 06:07:59;;;;;;;13.50;5.90;;;;;;;10.15;52.16;96164.03;5071966;28;20498;-70
2020/12/15 06:10:26;;;;;;;7.17;4.07;;;;;;;10.13;52.67;96155.53;5071693;28;20425;-70
2020/12/15 06:12:53;;;;;;;6.90;3.97;;;;;;;10.11;52.90;96166.19;5053084;28;20420;-70
2020/12/15 06:15:19;;;;;;;7.10;4.07;;;;;;;10.12;53.01;96164.38;5071992;28;20972;-70
2020/12/15 06:17:50;;;;;;;6.73;3.57;;;;;;;9.95;53.12;96159.25;5072495;28;20495;-69
2020/12/15 06:20:19;;;;;;;10.77;5.23;;;;;;;9.94;53.06;96168.09;5074986;28;20416;-69
2020/12/15 06:22:54;;;;;;;11.20;5.37;;;;;;;9.91;53.32;96168.44;5074896;28;20417;-68
2020/12/15 06:25:31;;;;;;;6.37;4.70;;;;;;;9.93;53.73;96179.56;5066420;28;20507;-70
2020/12/15 06:28:10;;;;;;;8.67;5.93;;;;;;;9.93;53.47;96182.19;5057256;28;20428;-70
2020/12/15 06:30:41;;;;;;;16.53;8.40;;;;;;;9.96;53.72;96171.34;5074385;28;20459;-69
2020/12/15 06:33:09;;;;;;;8.37;4.93;;;;;;;9.96;54.01;96176.56;5072733;28;20436;-70
2020/12/15 06:35:35;;;;;;;8.70;4.87;;;;;;;9.71;54.75;96178.53;5072645;28;20461;-70
2020/12/15 06:38:16;;;;;;;7.00;4.80;;;;;;;9.70;55.03;96182.13;5072253;28;20919;-70
2020/12/15 06:40:44;;;;;;;9.87;5.10;;;;;;;9.68;55.02;96184.09;5072139;28;20531;-69
2020/12/15 06:43:10;;;;;;;5.83;4.60;;;;;;;9.84;54.67;96185.81;5062456;28;20531;-69
2020/12/15 06:45:36;;;;;;;7.67;4.90;;;;;;;9.87;53.96;96179.44;5071931;28;20432;-69
2020/12/15 06:48:04;;;;;;;5.03;4.47;;;;;;;9.87;54.64;96182.84;5053415;28;20416;-69
2020/12/15 06:50:41;;;;;;;7.47;4.80;;;;;;;9.91;54.28;96181.53;5063063;28;20605;-70
2020/12/15 06:53:10;;;;;;;6.53;4.30;;;;;;;9.93;54.27;96166.47;5071581;28;20437;-70
2020/12/15 06:55:36;;;;;;;5.40;4.00;;;;;;;9.94;53.54;96172.50;5058068;28;20425;-70
2020/12/15 06:58:02;;;;;;;12.93;4.37;;;;;;;9.97;54.04;96170.34;5072157;28;20470;-69
2020/12/15 07:00:42;;;;;;;6.50;4.47;;;;;;;9.99;53.71;96171.00;5060428;28;20514;-70
2020/12/15 07:03:08;;;;;;;4.50;3.90;;;;;;;10.02;53.56;96169.81;5065534;28;20443;-70
2020/12/15 07:05:35;;;;;;;9.03;4.30;;;;;;;10.10;53.43;96174.19;5072186;28;20428;-70
2020/12/15 07:08:11;;;;;;;5.70;4.30;;;;;;;10.09;53.36;96168.16;5070604;28;20930;-69
2020/12/15 07:10:42;;;;;;;6.20;4.27;;;;;;;10.06;53.20;96168.50;5072179;28;20416;-70
2020/12/15 07:13:11;;;;;;;5.60;4.40;;;;;;;10.11;53.35;96166.19;5072062;28;20770;-70
2020/12/15 07:15:36;;;;;;;7.40;4.90;;;;;;;10.11;53.24;96167.97;5072146;28;20417;-70
2020/12/15 07:18:03;;;;;;;7.13;4.57;;;;;;;10.15;53.18;96170.06;5071598;28;20576;-70
2020/12/15 07:20:29;;;;;;;6.40;4.33;;;;;;;10.18;53.56;96174.16;5054091;28;20433;-69
2020/12/15 07:22:55;;;;;;;4.80;3.63;;;;;;;10.19;53.55;96178.41;5045334;28;20460;-69
2020/12/15 07:25:21;;;;;;;9.37;4.37;;;;;;;10.23;53.76;96184.91;5041589;28;20445;-69
2020/12/15 07:27:48;;;;;;;6.80;4.20;;;;;;;10.17;53.31;96188.22;5048701;28;20183;-69
2020/12/15 07:30:16;;;;;;;6.07;4.00;;;;;;;10.14;53.75;96193.81;5043404;28;20800;-69
2020/12/15 07:32:43;;;;;;;5.20;4.40;;;;;;;10.15;53.22;96193.63;5067954;28;20467;-69
2020/12/15 07:35:18;;;;;;;6.30;3.90;;;;;;;10.14;53.37;96194.59;5053480;28;20519;-69
2020/12/15 07:37:44;;;;;;;6.53;3.80;;;;;;;10.12;53.17;96190.53;5070554;28;20911;-71
2020/12/15 07:40:14;;;;;;;7.93;3.97;;;;;;;10.13;53.19;96197.41;5055182;28;20456;-69
2020/12/15 07:42:41;;;;;;;11.60;4.27;;;;;;;10.12;53.31;96193.16;5071420;28;20482;-69
2020/12/15 07:45:08;;;;;;;5.17;4.17;;;;;;;10.07;53.70;96203.38;5070984;28;20974;-69
2020/12/15 07:47:42;;;;;;;6.97;4.73;;;;;;;9.99;54.19;96205.03;5069619;28;20790;-68
2020/12/15 07:50:09;;;;;;;5.53;4.40;;;;;;;9.95;54.67;96203.75;5070459;28;20513;-68
2020/12/15 07:52:39;;;;;;;8.83;5.00;;;;;;;9.88;56.06;96220.31;5071038;28;20420;-67
2020/12/15 07:55:09;;;;;;;7.30;4.10;;;;;;;9.72;55.68;96221.19;5071296;28;20423;-69
2020/12/15 07:57:37;;;;;;;4.90;4.40;;;;;;;9.89;55.75;96217.53;5071107;28;20440;-69
2020/12/15 08:00:17;;;;;;;4.50;4.07;;;;;;;10.01;55.98;96211.91;5066535;28;20460;-68
2020/12/15 08:02:45;;;;;;;9.03;4.20;;;;;;;10.03;56.05;96218.56;5070494;28;20427;-69
2020/12/15 08:05:13;;;;;;;9.73;5.33;;;;;;;10.10;55.63;96213.47;5057203;28;20978;-68
2020/12/15 08:07:48;;;;;;;9.23;4.87;;;;;;;10.14;56.27;96212.13;5070801;28;20916;-70
2020/12/15 08:10:15;;;;;;;7.90;5.20;;;;;;;10.26;55.65;96220.41;5063337;28;20896;-68
2020/12/15 08:12:41;;;;;;;9.03;6.00;;;;;;;10.26;55.88;96221.22;5070501;28;20585;-68
2020/12/15 08:15:08;;;;;;;8.83;5.17;;;;;;;10.34;56.06;96227.38;5069265;28;20435;-68
2020/12/15 08:17:34;;;;;;;13.93;6.00;;;;;;;10.36;55.78;96220.16;5069893;28;20413;-68
2020/12/15 08:20:10;;;;;;;7.63;5.87;;;;;;;10.38;55.54;96231.31;5059172;28;20461;-68
2020/12/15 08:22:39;;;;;;;9.30;6.07;;;;;;;10.17;56.52;96224.88;5053556;28;20903;-70
2020/12/15 08:25:08;;;;;;;11.87;6.60;;;;;;;10.29;56.53;96233.97;5052043;28;20424;-69
2020/12/15 08:27:34;;;;;;;11.97;7.20;;;;;;;10.32;56.56;96237.25;5049807;28;20441;-69
2020/12/15 08:30:00;;;;;;;11.40;8.13;;;;;;;10.13;56.95;96239.31;5056344;28;20484;-70
2020/12/15 08:32:28;;;;;;;26.83;8.40;;;;;;;10.15;57.33;96242.56;5048145;28;20846;-70
2020/12/15 08:35:01;;;;;;;13.03;7.80;;;;;;;10.02;57.60;96243.13;5049396;28;20291;-70
2020/12/15 08:37:27;;;;;;;16.03;7.60;;;;;;;10.17;57.31;96247.63;5049385;28;20413;-70
2020/12/15 08:39:54;;;;;;;14.27;8.13;;;;;;;10.20;57.59;96245.50;5057337;28;20468;-70
2020/12/15 08:42:20;;;;;;;7.87;4.93;;;;;;;10.26;57.47;96246.59;5054467;28;20435;-70
2020/12/15 08:44:46;;;;;;;8.77;4.33;;;;;;;10.11;57.26;96243.91;5050636;28;20449;-69
2020/12/15 08:47:16;;;;;;;7.47;4.97;;;;;;;10.37;56.75;96248.81;5055512;28;20425;-69
2020/12/15 08:49:42;;;;;;;10.10;5.20;;;;;;;10.52;56.47;96242.84;5056449;28;20428;-69
2020/12/15 08:52:08;;;;;;;5.73;4.43;;;;;;;10.36;56.11;96246.34;5054704;28;20758;-69
2020/12/15 08:54:43;;;;;;;8.43;4.80;;;;;;;10.42;56.17;96248.31;5050496;28;20468;-70
2020/12/15 08:57:15;;;;;;;4.80;4.13;;;;;;;10.52;55.90;96259.38;5053674;28;20185;-69
2020/12/15 08:59:42;;;;;;;6.97;5.00;;;;;;;10.52;56.17;96262.00;5046006;28;20468;-70
2020/12/15 09:02:11;;;;;;;8.93;4.90;;;;;;;10.57;55.95;96259.69;5073695;28;20818;-69
2020/12/15 09:04:37;;;;;;;7.63;4.50;;;;;;;10.70;55.77;96263.50;5051416;28;20445;-68
2020/12/15 09:07:19;;;;;;;4.93;4.07;;;;;;;10.64;55.30;96267.66;5055117;28;20651;-69
2020/12/15 09:09:45;;;;;;;5.80;4.53;;;;;;;10.71;54.89;96268.56;5055443;28;20422;-69
2020/12/15 09:12:11;;;;;;;9.57;4.60;;;;;;;10.76;55.07;96273.28;5056532;28;20743;-68
2020/12/15 09:14:37;;;;;;;6.23;4.23;;;;;;;10.75;55.32;96269.03;5060464;28;20205;-68
2020/12/15 09:17:03;;;;;;;7.10;5.20;;;;;;;10.88;54.85;96264.00;5054360;28;20452;-68
2020/12/15 09:19:29;;;;;;;8.47;4.17;;;;;;;10.91;54.62;96270.69;5051117;28;20449;-69
2020/12/15 09:22:03;;;;;;;7.37;5.73;;;;;;;10.84;55.04;96267.97;5055319;28;20257;-69
2020/12/15 09:24:29;;;;;;;8.77;5.10;;;;;;;10.62;55.60;96271.41;5054605;28;20204;-70
2020/12/15 09:26:55;;;;;;;9.33;5.20;;;;;;;10.69;55.19;96270.53;5067055;28;20414;-69
2020/12/15 09:29:21;;;;;;;8.77;6.00;;;;;;;10.68;55.05;96270.72;5053050;28;20284;-69
2020/12/15 09:31:52;;;;;;;7.90;5.30;;;;;;;10.77;54.68;96272.28;5056536;28;20908;-69
2020/12/15 09:34:19;;;;;;;12.07;5.97;;;;;;;10.59;54.74;96262.91;5054948;28;20202;-68
2020/12/15 09:36:56;;;;;;;10.40;6.30;;;;;;;10.54;55.07;96273.13;5050846;28;20433;-71
2020/12/15 09:39:29;;;;;;;11.60;6.40;;;;;;;10.79;54.59;96274.72;5059938;28;20535;-70
2020/12/15 09:42:02;;;;;;;8.10;6.10;;;;;;;10.87;54.73;96272.06;5053279;28;20443;-69
2020/12/15 09:44:28;;;;;;;12.60;6.33;;;;;;;10.83;54.69;96282.09;5053017;28;20500;-68
2020/12/15 09:46:54;;;;;;;11.80;6.33;;;;;;;10.86;54.54;96279.09;5052209;28;20454;-68
2020/12/15 09:49:20;;;;;;;10.00;6.57;;;;;;;10.75;54.90;96279.50;5050855;28;20904;-67
2020/12/15 09:51:46;;;;;;;8.77;6.43;;;;;;;10.82;54.77;96280.44;5054949;28;20437;-71
2020/12/15 09:54:12;;;;;;;11.50;6.30;;;;;;;10.99;54.34;96281.13;5060968;28;20466;-68
2020/12/15 09:56:43;;;;;;;16.03;6.97;;;;;;;11.01;54.32;96273.06;5074160;28;20502;-69
2020/12/15 09:59:09;;;;;;;8.93;6.67;;;;;;;11.06;54.47;96274.16;5058329;28;20511;-69
2020/12/15 10:01:37;;;;;;;8.93;6.87;;;;;;;11.09;54.13;96285.28;5069176;28;20425;-70
2020/12/15 10:04:03;;;;;;;8.40;6.70;;;;;;;11.16;54.13;96276.53;5050608;28;20456;-69
2020/12/15 10:06:29;;;;;;;14.80;7.37;;;;;;;11.20;54.37;96272.56;5071681;28;20420;-70
2020/12/15 10:08:54;;;;;;;22.13;10.00;;;;;;;11.22;54.55;96270.56;5072626;28;20174;-67
2020/12/15 10:11:21;;;;;;;20.20;7.93;;;;;;;11.15;55.19;96276.72;5072891;28;20183;-69
2020/12/15 10:13:47;;;;;;;11.17;7.30;;;;;;;11.06;55.18;96270.75;5072800;28;20213;-69
2020/12/15 10:16:13;;;;;;;14.00;9.00;;;;;;;11.26;54.75;96270.22;5072982;28;20425;-72
2020/12/15 10:18:38;;;;;;;13.67;8.67;;;;;;;11.35;54.79;96269.97;5073208;28;20202;-68
2020/12/15 10:21:04;;;;;;;17.83;8.27;;;;;;;11.41;54.31;96260.56;5072871;28;20178;-68
2020/12/15 10:23:33;;;;;;;10.47;7.20;;;;;;;11.51;54.17;96266.34;5071623;28;20634;-69
2020/12/15 10:25:59;;;;;;;12.73;7.47;;;;;;;11.64;53.77;96268.34;5073086;28;20269;-69
2020/12/15 10:28:24;;;;;;;11.10;6.43;;;;;;;11.49;53.96;96268.31;5068048;28;20505;-68
2020/12/15 10:30:50;;;;;;;15.53;7.33;;;;;;;11.71;54.14;96268.44;5056169;28;20435;-72
2020/12/15 10:33:16;;;;;;;13.53;8.20;;;;;;;11.59;53.85;96269.88;5071911;28;20656;-68
2020/12/15 10:35:41;;;;;;;20.33;7.00;;;;;;;11.77;53.64;96265.06;5041854;28;20541;-69
2020/12/15 10:38:07;;;;;;;13.30;6.70;;;;;;;12.02;53.01;96267.41;5069689;28;20227;-69
2020/12/15 10:40:33;;;;;;;16.83;8.00;;;;;;;12.18;53.13;96273.44;5064041;28;20174;-69
2020/12/15 10:42:58;;;;;;;16.30;7.63;;;;;;;12.31;53.02;96262.25;5069411;28;20284;-69
2020/12/15 10:45:24;;;;;;;11.53;6.57;;;;;;;12.37;52.40;96267.56;5072087;28;20190;-69
2020/12/15 10:47:50;;;;;;;13.00;7.53;;;;;;;12.43;52.57;96269.47;5072142;28;20182;-69
2020/12/15 10:50:16;;;;;;;8.53;6.03;;;;;;;12.57;52.33;96269.59;5071168;28;20170;-69
2020/12/15 10:52:42;;;;;;;8.23;5.83;;;;;;;12.65;52.05;96268.66;5071759;28;20182;-70
2020/12/15 10:55:08;;;;;;;10.23;5.57;;;;;;;12.67;51.75;96264.84;5071776;28;20416;-70
2020/12/15 10:57:36;;;;;;;11.53;5.43;;;;;;;12.63;52.08;96271.47;5069655;28;20178;-69
2020/12/15 11:00:04;;;;;;;5.10;4.23;;;;;;;12.72;51.88;96270.38;5054595;28;20207;-69
2020/12/15 11:02:30;;;;;;;6.03;4.40;;;;;;;12.72;51.94;96266.91;5066277;28;20424;-68
2020/12/15 11:04:56;;;;;;;5.47;3.87;;;;;;;12.80;52.25;96265.97;5070267;28;20448;-69
2020/12/15 11:07:21;;;;;;;5.47;3.87;;;;;;;12.83;52.19;96266.41;5053236;28;20495;-69
2020/12/15 11:09:47;;;;;;;12.10;5.60;;;;;;;12.84;52.59;96265.41;5070109;28;20253;-68
2020/12/15 11:12:13;;;;;;;11.77;4.40;;;;;;;12.87;52.71;96265.03;5071550;28;20620;-69
2020/12/15 11:14:38;;;;;;;5.83;4.40;;;;;;;12.94;53.17;96267.69;5071773;28;20574;-70
2020/12/15 11:17:04;;;;;;;7.63;4.17;;;;;;;13.04;53.72;96268.19;5071525;28;20178;-70
2020/12/15 11:19:30;;;;;;;5.80;3.93;;;;;;;13.04;53.56;96273.44;5063351;28;20202;-69
2020/12/15 11:21:56;;;;;;;6.70;4.20;;;;;;;13.11;53.85;96260.34;5071488;28;20182;-69
2020/12/15 11:24:22;;;;;;;11.73;4.67;;;;;;;12.99;54.39;96269.75;5069644;28;20190;-68
2020/12/15 11:26:51;;;;;;;11.63;5.87;;;;;;;13.05;54.97;96259.28;5070712;28;20766;-69
2020/12/15 11:29:17;;;;;;;12.67;6.00;;;;;;;13.13;54.99;96260.13;5055030;28;20171;-68
2020/12/15 11:31:43;;;;;;;5.87;4.70;;;;;;;13.19;54.87;96262.03;5065059;28;20427;-68
2020/12/15 11:34:08;;;;;;;13.33;5.43;;;;;;;13.18;54.84;96260.38;5071020;28;21012;-69
2020/12/15 11:36:34;;;;;;;12.10;5.77;;;;;;;13.23;55.08;96255.38;5071023;28;20193;-69
2020/12/15 11:39:00;;;;;;;10.53;4.93;;;;;;;13.25;55.22;96242.81;5071129;28;20216;-69